createdAt,value
2019-05-30T00:01:09.430Z,14.90
2019-05-30T00:03:37.199Z,14.80
2019-05-30T00:06:04.979Z,14.80
2019-05-30T00:08:32.752Z,14.70
2019-05-30T00:11:00.665Z,14.60
2019-05-30T00:13:28.468Z,14.50
2019-05-30T00:15:58.758Z,14.50
2019-05-30T00:18:26.581Z,14.60
2019-05-30T00:20:54.711Z,14.60
2019-05-30T00:23:22.482Z,14.60
2019-05-30T00:25:50.253Z,14.60
2019-05-30T00:28:18.049Z,14.60
2019-05-30T00:30:45.696Z,14.60
2019-05-30T00:33:13.467Z,14.60
2019-05-30T00:35:41.226Z,14.40
2019-05-30T00:38:08.964Z,14.30
2019-05-30T00:40:36.701Z,14.10
2019-05-30T00:43:04.357Z,14.10
2019-05-30T00:45:32.046Z,14.20
2019-05-30T00:48:00.109Z,14.30
2019-05-30T00:50:27.906Z,14.30
2019-05-30T00:52:56.413Z,14.40
2019-05-30T00:55:24.181Z,14.40
2019-05-30T00:57:51.924Z,14.10
2019-05-30T01:00:19.697Z,14.10
2019-05-30T01:02:47.577Z,13.80
2019-05-30T01:05:15.569Z,13.60
2019-05-30T01:07:43.226Z,13.50
2019-05-30T01:10:11.305Z,13.60
2019-05-30T01:12:38.934Z,13.50
2019-05-30T01:15:07.530Z,13.50
2019-05-30T01:17:35.278Z,13.60
2019-05-30T01:20:03.715Z,13.60
2019-05-30T01:22:31.445Z,13.70
2019-05-30T01:24:59.218Z,13.80
2019-05-30T01:27:26.979Z,13.90
2019-05-30T01:29:54.729Z,13.90
2019-05-30T01:32:28.761Z,14.00
2019-05-30T01:34:57.624Z,13.90
2019-05-30T01:37:25.801Z,14.00
2019-05-30T01:39:53.612Z,13.90
2019-05-30T01:42:21.401Z,14.00
2019-05-30T01:44:49.069Z,13.80
2019-05-30T01:47:16.716Z,13.60
2019-05-30T01:49:44.386Z,13.50
2019-05-30T01:52:12.080Z,13.50
2019-05-30T01:54:39.739Z,13.50
2019-05-30T01:57:07.373Z,13.50
2019-05-30T01:59:35.004Z,13.50
2019-05-30T02:02:03.133Z,13.40
2019-05-30T02:04:30.817Z,13.50
2019-05-30T02:06:59.207Z,13.50
2019-05-30T02:09:27.045Z,13.50
2019-05-30T02:11:54.680Z,13.20
2019-05-30T02:14:22.373Z,13.10
2019-05-30T02:16:50.005Z,12.90
2019-05-30T02:19:18.736Z,12.90
2019-05-30T02:21:46.449Z,12.90
2019-05-30T02:24:14.125Z,12.90
2019-05-30T02:26:41.786Z,12.90
2019-05-30T02:29:10.435Z,13.10
2019-05-30T02:31:39.805Z,13.00
2019-05-30T02:34:09.610Z,12.90
2019-05-30T02:36:37.421Z,12.80
2019-05-30T02:39:07.409Z,12.80
2019-05-30T02:41:35.738Z,12.70
2019-05-30T02:44:05.547Z,12.70
2019-05-30T02:46:33.326Z,12.70
2019-05-30T02:49:03.921Z,12.70
2019-05-30T02:51:30.612Z,12.70
2019-05-30T02:53:58.266Z,12.80
2019-05-30T02:56:25.958Z,12.70
2019-05-30T02:58:53.675Z,12.60
2019-05-30T03:01:21.393Z,12.60
2019-05-30T03:03:49.242Z,12.40
2019-05-30T03:06:17.004Z,12.50
2019-05-30T03:08:45.936Z,12.40
2019-05-30T03:11:15.496Z,12.50
2019-05-30T03:13:43.173Z,12.60
2019-05-30T03:16:13.062Z,12.70
2019-05-30T03:18:40.398Z,12.70
2019-05-30T03:21:10.357Z,12.70
2019-05-30T03:23:37.638Z,12.60
2019-05-30T03:26:07.113Z,12.50
2019-05-30T03:28:34.899Z,12.40
2019-05-30T03:31:10.407Z,12.30
2019-05-30T03:33:40.796Z,12.40
2019-05-30T03:36:06.274Z,12.40
2019-05-30T03:38:34.051Z,12.40
2019-05-30T03:41:01.688Z,12.40
2019-05-30T03:43:29.345Z,12.40
2019-05-30T03:45:56.993Z,12.40
2019-05-30T03:48:25.638Z,12.40
2019-05-30T03:50:56.334Z,12.50
2019-05-30T03:53:24.126Z,12.60
2019-05-30T03:55:57.599Z,12.70
2019-05-30T03:58:38.083Z,12.70
2019-05-30T04:01:10.211Z,12.60
2019-05-30T04:03:43.453Z,12.30
2019-05-30T04:06:21.656Z,12.40
2019-05-30T04:08:52.471Z,12.30
2019-05-30T04:11:24.545Z,12.30
2019-05-30T04:13:56.149Z,12.30
2019-05-30T04:16:23.809Z,12.30
2019-05-30T04:18:52.605Z,12.40
2019-05-30T04:21:21.616Z,12.40
2019-05-30T04:23:49.556Z,12.30
2019-05-30T04:26:18.146Z,12.20
2019-05-30T04:28:45.994Z,12.30
2019-05-30T04:31:14.531Z,12.30
2019-05-30T04:33:42.321Z,12.40
2019-05-30T04:36:10.609Z,12.40
2019-05-30T04:38:38.436Z,12.40
2019-05-30T04:41:06.099Z,12.60
2019-05-30T04:43:33.751Z,12.70
2019-05-30T04:46:01.384Z,12.80
2019-05-30T04:48:29.055Z,12.80
2019-05-30T04:50:56.693Z,12.70
2019-05-30T04:53:24.446Z,12.60
2019-05-30T04:55:52.098Z,12.60
2019-05-30T04:58:23.305Z,12.60
2019-05-30T05:00:49.710Z,12.70
2019-05-30T05:03:36.138Z,12.70
2019-05-30T05:05:46.922Z,12.80
2019-05-30T05:08:15.882Z,13.00
2019-05-30T05:10:43.939Z,13.10
2019-05-30T05:13:12.235Z,13.20
2019-05-30T05:15:40.054Z,13.40
2019-05-30T05:18:07.703Z,13.40
2019-05-30T05:20:36.452Z,13.50
2019-05-30T05:23:04.262Z,13.60
2019-05-30T05:25:31.951Z,13.70
2019-05-30T05:27:59.591Z,13.70
2019-05-30T05:30:27.266Z,13.90
2019-05-30T05:32:54.901Z,14.00
2019-05-30T05:35:23.042Z,14.10
2019-05-30T05:37:50.816Z,14.10
2019-05-30T05:40:18.512Z,14.20
2019-05-30T05:42:46.182Z,14.30
2019-05-30T05:45:16.196Z,14.40
2019-05-30T05:47:44.025Z,14.50
2019-05-30T05:50:11.681Z,14.50
2019-05-30T05:52:39.371Z,14.60
2019-05-30T05:55:07.097Z,14.70
2019-05-30T05:57:34.809Z,14.80
2019-05-30T06:00:03.441Z,14.80
2019-05-30T06:02:31.416Z,14.80
2019-05-30T06:04:59.049Z,14.90
2019-05-30T06:07:26.713Z,15.10
2019-05-30T06:09:54.377Z,15.10
2019-05-30T06:12:22.057Z,15.00
2019-05-30T06:14:49.713Z,15.10
2019-05-30T06:17:17.395Z,15.30
2019-05-30T06:19:46.729Z,15.40
2019-05-30T06:22:14.645Z,15.50
2019-05-30T06:24:42.348Z,15.50
2019-05-30T06:27:11.100Z,15.60
2019-05-30T06:29:38.823Z,15.80
2019-05-30T06:32:06.487Z,15.80
2019-05-30T06:34:39.163Z,15.70
2019-05-30T06:37:04.330Z,15.70
2019-05-30T06:39:32.133Z,15.90
2019-05-30T06:41:59.813Z,16.30
2019-05-30T06:44:28.092Z,16.30
2019-05-30T06:46:55.909Z,16.60
2019-05-30T06:49:24.736Z,16.90
2019-05-30T06:51:52.502Z,17.00
2019-05-30T06:54:21.534Z,17.10
2019-05-30T06:56:49.823Z,17.30
2019-05-30T06:59:17.482Z,17.40
2019-05-30T07:01:46.287Z,17.60
2019-05-30T07:04:14.703Z,17.80
2019-05-30T07:06:42.900Z,18.10
2019-05-30T07:09:10.882Z,18.10
2019-05-30T07:11:38.516Z,18.20
2019-05-30T07:14:06.214Z,18.40
2019-05-30T07:16:33.914Z,18.50
2019-05-30T07:19:02.750Z,18.70
2019-05-30T07:21:31.778Z,18.60
2019-05-30T07:23:59.534Z,18.60
2019-05-30T07:26:28.094Z,18.70
2019-05-30T07:28:55.765Z,18.80
2019-05-30T07:31:24.037Z,18.90
2019-05-30T07:33:51.805Z,18.90
2019-05-30T07:36:19.557Z,19.10
2019-05-30T07:38:47.227Z,19.00
2019-05-30T07:41:14.890Z,18.80
2019-05-30T07:43:42.582Z,19.00
2019-05-30T07:46:10.370Z,19.20
2019-05-30T07:48:38.596Z,19.30
2019-05-30T07:51:06.545Z,19.50
2019-05-30T07:53:34.939Z,19.40
2019-05-30T07:56:02.799Z,19.50
2019-05-30T07:58:31.137Z,19.50
2019-05-30T08:00:58.903Z,19.70
2019-05-30T08:03:26.554Z,19.50
2019-05-30T08:05:54.318Z,19.50
2019-05-30T08:08:22.288Z,19.60
2019-05-30T08:10:50.665Z,19.80
2019-05-30T08:13:18.346Z,19.80
2019-05-30T08:15:46.067Z,19.80
2019-05-30T08:18:13.739Z,19.80
2019-05-30T08:20:41.617Z,19.90
2019-05-30T08:23:10.072Z,20.00
2019-05-30T08:25:38.468Z,20.00
2019-05-30T08:28:06.498Z,20.20
2019-05-30T08:30:34.630Z,20.40
2019-05-30T08:33:02.423Z,20.60
2019-05-30T08:35:39.170Z,20.60
2019-05-30T08:37:59.809Z,20.60
2019-05-30T08:40:27.541Z,20.70
2019-05-30T08:42:55.325Z,20.70
2019-05-30T08:45:22.998Z,20.70
2019-05-30T08:47:50.731Z,20.90
2019-05-30T08:50:18.423Z,21.10
2019-05-30T08:52:46.080Z,21.20
2019-05-30T08:55:15.661Z,21.40
2019-05-30T08:57:43.350Z,21.60
2019-05-30T09:00:12.974Z,21.60
2019-05-30T09:02:41.047Z,21.60
2019-05-30T09:05:09.351Z,21.60
2019-05-30T09:07:38.360Z,21.70
2019-05-30T09:10:07.449Z,21.90
2019-05-30T09:12:36.435Z,22.10
2019-05-30T09:15:06.062Z,22.20
2019-05-30T09:17:33.780Z,21.70
2019-05-30T09:20:01.903Z,21.60
2019-05-30T09:22:29.932Z,21.70
2019-05-30T09:24:57.638Z,21.80
2019-05-30T09:27:25.390Z,21.90
2019-05-30T09:29:53.106Z,22.20
2019-05-30T09:32:20.932Z,22.30
2019-05-30T09:34:48.918Z,22.30
2019-05-30T09:37:16.697Z,22.40
2019-05-30T09:39:45.459Z,22.40
2019-05-30T09:42:13.318Z,22.50
2019-05-30T09:44:42.234Z,22.70
2019-05-30T09:47:10.061Z,22.70
2019-05-30T09:49:37.813Z,22.60
2019-05-30T09:52:05.689Z,22.50
2019-05-30T09:54:33.584Z,22.30
2019-05-30T09:57:01.525Z,22.40
2019-05-30T09:59:29.460Z,22.50
2019-05-30T10:01:57.231Z,22.60
2019-05-30T10:04:25.008Z,22.60
2019-05-30T10:06:52.753Z,22.60
2019-05-30T10:09:23.465Z,22.70
2019-05-30T10:11:51.400Z,22.80
2019-05-30T10:14:19.106Z,22.80
2019-05-30T10:16:52.417Z,22.70
2019-05-30T10:19:16.438Z,22.70
2019-05-30T10:21:45.450Z,22.50
2019-05-30T10:24:16.662Z,22.50
2019-05-30T10:26:45.590Z,22.40
2019-05-30T10:29:13.954Z,22.30
2019-05-30T10:31:41.664Z,22.30
2019-05-30T10:34:09.328Z,22.40
2019-05-30T10:36:44.341Z,22.60
2019-05-30T10:39:06.914Z,22.70
2019-05-30T10:41:34.619Z,22.60
2019-05-30T10:44:02.285Z,22.60
2019-05-30T10:46:29.977Z,22.50
2019-05-30T10:48:57.674Z,22.60
2019-05-30T10:51:25.433Z,22.80
2019-05-30T10:53:54.053Z,22.90
2019-05-30T10:56:23.164Z,23.00
2019-05-30T10:58:50.892Z,23.10
2019-05-30T11:01:18.820Z,23.20
2019-05-30T11:03:47.597Z,23.10
2019-05-30T11:06:30.302Z,23.30
2019-05-30T11:09:06.757Z,23.20
2019-05-30T11:17:36.392Z,23.00
2019-05-30T11:20:04.920Z,23.00
2019-05-30T11:22:32.787Z,23.20
2019-05-30T11:25:00.754Z,23.10
2019-05-30T11:27:28.529Z,23.10
2019-05-30T11:29:56.887Z,23.10
2019-05-30T11:32:24.846Z,23.00
2019-05-30T11:34:53.039Z,22.90
2019-05-30T11:37:20.910Z,23.20
2019-05-30T11:39:49.075Z,23.40
2019-05-30T11:42:16.855Z,23.50
2019-05-30T11:44:44.551Z,23.70
2019-05-30T11:47:12.199Z,23.60
2019-05-30T11:49:39.906Z,23.60
2019-05-30T11:52:07.788Z,23.70
2019-05-30T11:54:35.456Z,23.90
2019-05-30T11:57:03.246Z,24.10
2019-05-30T11:59:30.901Z,24.10
2019-05-30T12:01:58.632Z,24.00
2019-05-30T12:04:26.531Z,24.00
2019-05-30T12:06:54.687Z,24.00
2019-05-30T12:09:22.542Z,24.10
2019-05-30T12:11:51.012Z,24.30
2019-05-30T12:14:21.386Z,24.50
2019-05-30T12:16:48.403Z,24.40
2019-05-30T12:19:16.072Z,24.30
2019-05-30T12:21:43.782Z,24.10
2019-05-30T12:24:11.519Z,24.20
2019-05-30T12:26:39.226Z,24.20
2019-05-30T12:29:06.869Z,24.20
2019-05-30T12:31:34.536Z,24.20
2019-05-30T12:34:02.732Z,24.30
2019-05-30T12:36:30.593Z,24.30
2019-05-30T12:38:58.480Z,24.50
2019-05-30T12:41:26.259Z,24.60
2019-05-30T12:43:54.961Z,24.70
2019-05-30T12:46:23.830Z,24.80
2019-05-30T12:48:51.768Z,24.60
2019-05-30T12:51:20.610Z,24.40
2019-05-30T12:53:48.338Z,24.40
2019-05-30T12:56:17.004Z,24.70
2019-05-30T12:58:44.685Z,24.80
2019-05-30T13:01:12.447Z,24.90
2019-05-30T13:03:40.206Z,24.80
2019-05-30T13:06:07.872Z,24.90
2019-05-30T13:08:35.880Z,24.70
2019-05-30T13:11:03.922Z,24.50
2019-05-30T13:13:31.698Z,24.40
2019-05-30T13:16:00.793Z,24.30
2019-05-30T13:18:29.037Z,24.20
2019-05-30T13:20:57.950Z,24.10
2019-05-30T13:23:25.705Z,24.30
2019-05-30T13:25:55.417Z,24.40
2019-05-30T13:28:23.266Z,24.40
2019-05-30T13:30:50.910Z,24.50
2019-05-30T13:33:18.651Z,24.40
2019-05-30T13:35:46.351Z,24.30
2019-05-30T13:38:25.733Z,24.40
2019-05-30T13:40:43.655Z,24.40
2019-05-30T13:43:11.678Z,24.20
2019-05-30T13:45:39.388Z,24.10
2019-05-30T13:48:07.172Z,24.00
2019-05-30T13:50:34.961Z,24.10
2019-05-30T13:53:03.063Z,24.30
2019-05-30T13:55:31.207Z,24.20
2019-05-30T13:57:59.507Z,24.30
2019-05-30T14:00:27.515Z,24.00
2019-05-30T14:02:55.421Z,23.80
2019-05-30T14:05:23.133Z,23.90
2019-05-30T14:07:50.913Z,23.80
2019-05-30T14:10:18.780Z,23.80
2019-05-30T14:12:46.475Z,23.90
2019-05-30T14:15:14.708Z,23.70
2019-05-30T14:17:42.586Z,23.80
2019-05-30T17:53:21.849Z,23.50
2019-05-30T17:55:59.267Z,23.20
2019-05-30T17:58:32.162Z,23.20
2019-05-30T18:01:08.063Z,23.10
2019-05-30T18:03:44.297Z,23.10
2019-05-30T18:06:20.295Z,23.00
2019-05-30T18:08:54.808Z,23.10
2019-05-30T18:11:29.071Z,23.30
2019-05-30T18:14:03.139Z,23.50
2019-05-30T18:16:37.112Z,23.60
2019-05-30T18:19:11.013Z,23.70
2019-05-30T18:21:45.115Z,23.70
2019-05-30T18:24:19.270Z,23.70
2019-05-30T18:26:53.482Z,23.70
2019-05-30T18:29:28.107Z,23.70
2019-05-30T18:32:02.422Z,23.70
2019-05-30T18:34:36.355Z,23.50
2019-05-30T18:37:10.432Z,23.60
2019-05-30T18:39:44.521Z,23.60
2019-05-30T18:42:18.619Z,23.60
2019-05-30T18:44:52.763Z,23.40
2019-05-30T18:47:27.020Z,23.40
2019-05-30T18:50:01.095Z,23.50
2019-05-30T18:52:36.722Z,23.60
2019-05-30T18:55:11.471Z,23.60
2019-05-30T18:57:45.488Z,23.80
2019-05-30T19:00:19.764Z,23.90
2019-05-30T19:02:53.541Z,23.90
2019-05-30T19:05:28.567Z,23.90
2019-05-30T19:08:03.598Z,23.80
2019-05-30T19:10:37.938Z,23.90
2019-05-30T19:13:11.873Z,23.90
2019-05-30T19:15:46.137Z,23.70
2019-05-30T19:18:20.181Z,23.50
2019-05-30T19:20:54.080Z,23.50
2019-05-30T19:23:28.155Z,23.40
2019-05-30T19:26:02.377Z,23.30
2019-05-30T19:28:36.721Z,23.20
2019-05-30T19:31:11.443Z,23.10
2019-05-30T19:33:45.646Z,23.00
2019-05-30T19:36:20.696Z,23.00
2019-05-30T19:38:55.789Z,23.00
2019-05-30T19:41:45.952Z,23.00
2019-05-30T19:44:05.935Z,23.00
2019-05-30T19:46:40.673Z,22.90
2019-05-30T19:49:15.574Z,22.80
2019-05-30T19:51:49.875Z,22.60
2019-05-30T19:54:23.904Z,22.60
2019-05-30T19:56:58.040Z,22.60
2019-05-30T19:59:32.025Z,22.50
2019-05-30T20:02:06.122Z,22.40
2019-05-30T20:04:40.610Z,22.30
2019-05-30T20:07:15.160Z,22.20
2019-05-30T20:10:00.818Z,22.10
2019-05-30T20:12:25.285Z,22.00
2019-05-30T20:14:59.349Z,21.90
2019-05-30T20:17:33.559Z,21.90
2019-05-30T20:20:08.131Z,21.80
2019-05-30T20:22:42.963Z,21.80
2019-05-30T20:25:17.181Z,21.70
2019-05-30T20:27:51.161Z,21.70
2019-05-30T20:30:24.979Z,21.60
2019-05-30T20:32:58.915Z,21.50
2019-05-30T20:35:35.804Z,21.60
2019-05-30T20:38:09.134Z,21.40
2019-05-30T20:40:43.227Z,21.30
2019-05-30T20:43:17.235Z,21.30
2019-05-30T20:45:51.419Z,21.40
2019-05-30T20:48:25.341Z,21.30
2019-05-30T20:51:00.449Z,21.20
2019-05-30T20:53:35.262Z,21.20
2019-05-30T20:56:09.694Z,21.20
2019-05-30T20:58:43.935Z,21.10
2019-05-30T21:01:17.925Z,21.00
2019-05-30T21:03:52.070Z,20.90
2019-05-30T21:06:26.872Z,20.90
2019-05-30T21:09:02.509Z,20.80
2019-05-30T21:11:39.991Z,20.70
2019-05-30T21:14:16.003Z,20.70
2019-05-30T21:16:51.345Z,20.70
2019-05-30T21:19:25.526Z,20.60
2019-05-30T21:21:59.264Z,20.60
2019-05-30T21:24:33.049Z,20.50
2019-05-30T21:27:07.152Z,20.50
2019-05-30T21:29:41.283Z,20.30
2019-05-30T21:32:15.530Z,20.40
2019-05-30T21:34:50.799Z,20.30
2019-05-30T21:37:25.474Z,20.20
2019-05-30T21:39:59.687Z,20.00
2019-05-30T21:42:33.530Z,19.90
2019-05-30T21:45:07.539Z,19.80
2019-05-30T21:47:42.824Z,19.70
2019-05-30T21:50:17.045Z,19.70
2019-05-30T21:52:51.137Z,19.60
2019-05-30T21:55:24.861Z,19.50
2019-05-30T21:57:58.888Z,19.40
2019-05-30T22:01:14.703Z,19.40
2019-05-30T22:03:49.105Z,19.30
2019-05-30T22:06:23.009Z,19.20
2019-05-30T22:08:58.326Z,19.20
2019-05-30T22:11:32.948Z,19.10
2019-05-30T22:14:07.013Z,19.10
2019-05-30T22:16:41.839Z,19.00
2019-05-30T22:19:15.869Z,19.10
2019-05-30T22:21:50.257Z,18.90
2019-05-30T22:24:24.616Z,18.90
2019-05-30T22:26:58.777Z,18.80
2019-05-30T22:29:33.098Z,18.70
2019-05-30T22:32:07.722Z,18.60
2019-05-30T22:34:42.701Z,18.50
2019-05-30T22:37:16.770Z,18.50
2019-05-30T22:39:51.050Z,18.50
2019-05-30T22:42:24.873Z,18.50
2019-05-30T22:44:58.846Z,18.50
2019-05-30T22:47:33.046Z,18.50
2019-05-30T22:50:07.258Z,18.50
2019-05-30T22:52:41.465Z,18.50
2019-05-30T22:55:15.357Z,18.60
2019-05-30T22:57:50.358Z,18.60
2019-05-30T23:00:24.887Z,18.40
2019-05-30T23:02:58.738Z,18.30
2019-05-30T23:05:32.765Z,18.20
2019-05-30T23:08:06.973Z,18.10
2019-05-30T23:10:41.086Z,18.00
2019-05-30T23:13:15.098Z,18.10
2019-05-30T23:15:50.016Z,18.00
2019-05-30T23:18:25.371Z,18.00
2019-05-30T23:20:59.462Z,18.00
2019-05-30T23:23:33.437Z,17.90
2019-05-30T23:26:07.622Z,17.90
2019-05-30T23:28:41.765Z,17.80
2019-05-30T23:31:15.680Z,17.80
2019-05-30T23:33:50.257Z,17.80
2019-05-30T23:36:25.003Z,17.80
2019-05-30T23:38:59.135Z,17.80
2019-05-30T23:41:33.186Z,17.90
2019-05-30T23:44:11.430Z,17.80
2019-05-30T23:46:43.373Z,17.70
2019-05-30T23:49:17.583Z,17.60
2019-05-30T23:51:54.465Z,17.60
2019-05-30T23:54:28.697Z,17.60
2019-05-30T23:57:03.058Z,17.70
2019-05-30T23:59:36.943Z,17.60
